CheckWX is a tool to help pilots better visualize weather data.  It is not intended as a substitute for an official pre-flight weather briefing.

06:54:46 UTC

YTRE TAF
Taree Airport
Taree, Australia
TAF YTRE 180032Z 1802/1814 25008KT 9999 -SHRA FEW025 SCT040 BECMG 1808/1810 26006KT 9999 NSW FEW035 SCT050

Jun-18@
02:00 UTC

Jun-18 @ 02:00 UTC

Jun-18@
08:00 UTC

Jun-18 @ 08:00 UTC

TAF YTRE 180032Z 1802/1814 25008KT 9999 -SHRA FEW025 SCT040
Wind
  • 250° at 8 KTS
Conditions
Light Rain
Cloud Levels
  • Few at 2,500' AGL
  • Scattered at 4,000' AGL

Jun-18@
08:00 UTC

Jun-18 @ 08:00 UTC

Jun-18@
14:00 UTC

Jun-18 @ 14:00 UTC

BECMG 1808/1810 26006KT 9999 NSW FEW035 SCT050

Becoming

Becoming Conditions expected by Tue, Jun 18, 2019 @ 10:00 UTC

Wind
  • 260° at 6 KTS
Conditions
No significant weather
Cloud Levels
  • Few at 3,500' AGL
  • Scattered at 5,000' AGL